sensor_id;sensor_type;location;lat;lon;timestamp;temperature;humidity
48579;DHT22;34357;51.948;6.132;2023-03-24T00:00:00;11.60;90.30
48579;DHT22;34357;51.948;6.132;2023-03-24T00:02:27;11.60;90.40
48579;DHT22;34357;51.948;6.132;2023-03-24T00:04:53;11.60;90.50
48579;DHT22;34357;51.948;6.132;2023-03-24T00:07:24;11.60;90.50
48579;DHT22;34357;51.948;6.132;2023-03-24T00:09:50;11.60;90.60
48579;DHT22;34357;51.948;6.132;2023-03-24T00:12:15;11.60;90.80
48579;DHT22;34357;51.948;6.132;2023-03-24T00:14:44;11.60;90.70
48579;DHT22;34357;51.948;6.132;2023-03-24T00:17:13;11.60;90.70
48579;DHT22;34357;51.948;6.132;2023-03-24T00:19:42;11.70;90.80
48579;DHT22;34357;51.948;6.132;2023-03-24T00:22:11;11.60;90.80
48579;DHT22;34357;51.948;6.132;2023-03-24T00:24:40;11.70;90.80
48579;DHT22;34357;51.948;6.132;2023-03-24T00:27:06;11.70;90.90
48579;DHT22;34357;51.948;6.132;2023-03-24T00:29:33;11.60;91.10
48579;DHT22;34357;51.948;6.132;2023-03-24T00:32:00;11.60;91.00
48579;DHT22;34357;51.948;6.132;2023-03-24T00:34:26;11.60;91.10
48579;DHT22;34357;51.948;6.132;2023-03-24T00:36:52;11.70;91.10
48579;DHT22;34357;51.948;6.132;2023-03-24T00:39:19;11.60;91.30
48579;DHT22;34357;51.948;6.132;2023-03-24T00:41:46;11.60;91.40
48579;DHT22;34357;51.948;6.132;2023-03-24T00:44:14;11.60;91.60
48579;DHT22;34357;51.948;6.132;2023-03-24T00:46:47;11.60;91.70
48579;DHT22;34357;51.948;6.132;2023-03-24T00:49:26;11.60;91.70
48579;DHT22;34357;51.948;6.132;2023-03-24T00:52:15;11.60;91.70
48579;DHT22;34357;51.948;6.132;2023-03-24T00:54:43;11.70;91.60
48579;DHT22;34357;51.948;6.132;2023-03-24T00:57:11;11.70;91.70
48579;DHT22;34357;51.948;6.132;2023-03-24T00:59:39;11.70;91.80
48579;DHT22;34357;51.948;6.132;2023-03-24T01:02:17;11.70;91.80
48579;DHT22;34357;51.948;6.132;2023-03-24T01:04:50;11.70;91.70
48579;DHT22;34357;51.948;6.132;2023-03-24T01:07:21;11.70;91.80
48579;DHT22;34357;51.948;6.132;2023-03-24T01:09:47;11.80;91.60
48579;DHT22;34357;51.948;6.132;2023-03-24T01:12:30;11.80;91.70
48579;DHT22;34357;51.948;6.132;2023-03-24T01:15:00;11.80;91.40
48579;DHT22;34357;51.948;6.132;2023-03-24T01:17:27;11.80;91.40
48579;DHT22;34357;51.948;6.132;2023-03-24T01:19:55;11.80;91.40
48579;DHT22;34357;51.948;6.132;2023-03-24T01:22:22;11.90;91.30
48579;DHT22;34357;51.948;6.132;2023-03-24T01:24:51;11.90;91.30
48579;DHT22;34357;51.948;6.132;2023-03-24T01:27:17;11.90;91.30
48579;DHT22;34357;51.948;6.132;2023-03-24T01:29:43;11.90;91.30
48579;DHT22;34357;51.948;6.132;2023-03-24T01:32:09;11.90;91.30
48579;DHT22;34357;51.948;6.132;2023-03-24T01:34:35;11.90;91.50
48579;DHT22;34357;51.948;6.132;2023-03-24T01:37:01;11.90;91.50
48579;DHT22;34357;51.948;6.132;2023-03-24T01:39:27;11.90;91.40
48579;DHT22;34357;51.948;6.132;2023-03-24T01:41:54;11.90;91.30
48579;DHT22;34357;51.948;6.132;2023-03-24T01:44:35;11.90;91.40
48579;DHT22;34357;51.948;6.132;2023-03-24T01:47:04;11.90;91.30
48579;DHT22;34357;51.948;6.132;2023-03-24T01:49:37;11.90;91.40
48579;DHT22;34357;51.948;6.132;2023-03-24T01:52:10;11.90;91.50
48579;DHT22;34357;51.948;6.132;2023-03-24T01:54:45;11.90;91.50
48579;DHT22;34357;51.948;6.132;2023-03-24T01:57:37;12.00;91.40
48579;DHT22;34357;51.948;6.132;2023-03-24T02:00:07;11.90;91.50
48579;DHT22;34357;51.948;6.132;2023-03-24T02:03:10;11.90;91.60
48579;DHT22;34357;51.948;6.132;2023-03-24T02:05:48;11.90;91.70
48579;DHT22;34357;51.948;6.132;2023-03-24T02:08:24;11.90;91.80
48579;DHT22;34357;51.948;6.132;2023-03-24T02:10:53;11.90;91.90
48579;DHT22;34357;51.948;6.132;2023-03-24T02:13:20;11.90;92.00
48579;DHT22;34357;51.948;6.132;2023-03-24T02:32:25;11.90;92.20
48579;DHT22;34357;51.948;6.132;2023-03-24T02:35:33;11.90;92.20
48579;DHT22;34357;51.948;6.132;2023-03-24T02:38:12;11.90;92.30
48579;DHT22;34357;51.948;6.132;2023-03-24T02:48:54;12.00;92.50
48579;DHT22;34357;51.948;6.132;2023-03-24T02:51:26;12.00;92.50
48579;DHT22;34357;51.948;6.132;2023-03-24T02:59:59;12.00;92.50
48579;DHT22;34357;51.948;6.132;2023-03-24T03:02:54;12.00;92.60
48579;DHT22;34357;51.948;6.132;2023-03-24T03:05:32;12.00;92.60
48579;DHT22;34357;51.948;6.132;2023-03-24T03:08:01;12.00;92.70
48579;DHT22;34357;51.948;6.132;2023-03-24T03:10:33;12.00;92.60
48579;DHT22;34357;51.948;6.132;2023-03-24T03:13:03;12.00;92.60
48579;DHT22;34357;51.948;6.132;2023-03-24T03:15:36;12.00;92.70
48579;DHT22;34357;51.948;6.132;2023-03-24T03:18:23;12.00;92.80
48579;DHT22;34357;51.948;6.132;2023-03-24T03:20:56;12.10;92.70
48579;DHT22;34357;51.948;6.132;2023-03-24T03:23:28;12.10;92.70
48579;DHT22;34357;51.948;6.132;2023-03-24T03:25:59;12.10;92.70
48579;DHT22;34357;51.948;6.132;2023-03-24T03:28:32;12.10;92.70
48579;DHT22;34357;51.948;6.132;2023-03-24T03:31:04;12.10;92.80
48579;DHT22;34357;51.948;6.132;2023-03-24T03:33:42;12.10;92.80
48579;DHT22;34357;51.948;6.132;2023-03-24T03:36:26;12.10;92.10
48579;DHT22;34357;51.948;6.132;2023-03-24T03:39:09;12.00;90.70
48579;DHT22;34357;51.948;6.132;2023-03-24T03:41:37;11.90;90.00
48579;DHT22;34357;51.948;6.132;2023-03-24T03:44:05;11.80;90.10
48579;DHT22;34357;51.948;6.132;2023-03-24T03:46:32;11.80;90.40
48579;DHT22;34357;51.948;6.132;2023-03-24T03:48:59;11.70;90.60
48579;DHT22;34357;51.948;6.132;2023-03-24T03:51:25;11.70;90.70
48579;DHT22;34357;51.948;6.132;2023-03-24T03:53:57;11.60;89.70
48579;DHT22;34357;51.948;6.132;2023-03-24T03:56:27;11.50;89.30
48579;DHT22;34357;51.948;6.132;2023-03-24T03:59:06;11.40;87.70
48579;DHT22;34357;51.948;6.132;2023-03-24T04:01:34;11.30;87.90
48579;DHT22;34357;51.948;6.132;2023-03-24T04:20:14;10.70;86.80
48579;DHT22;34357;51.948;6.132;2023-03-24T04:25:44;10.60;86.90
48579;DHT22;34357;51.948;6.132;2023-03-24T04:28:25;10.50;86.80
48579;DHT22;34357;51.948;6.132;2023-03-24T04:34:06;10.40;86.60
48579;DHT22;34357;51.948;6.132;2023-03-24T04:39:29;10.40;87.10
48579;DHT22;34357;51.948;6.132;2023-03-24T04:42:02;10.40;86.70
48579;DHT22;34357;51.948;6.132;2023-03-24T04:44:30;10.40;86.00
48579;DHT22;34357;51.948;6.132;2023-03-24T04:47:19;10.40;85.70
48579;DHT22;34357;51.948;6.132;2023-03-24T04:50:05;10.40;86.20
48579;DHT22;34357;51.948;6.132;2023-03-24T04:52:34;10.40;86.60
48579;DHT22;34357;51.948;6.132;2023-03-24T04:55:03;10.40;86.70
48579;DHT22;34357;51.948;6.132;2023-03-24T04:57:37;10.40;86.30
48579;DHT22;34357;51.948;6.132;2023-03-24T05:00:05;10.40;86.60
48579;DHT22;34357;51.948;6.132;2023-03-24T05:02:33;10.40;86.80
48579;DHT22;34357;51.948;6.132;2023-03-24T05:05:05;10.30;86.90
48579;DHT22;34357;51.948;6.132;2023-03-24T05:07:38;10.30;86.80
48579;DHT22;34357;51.948;6.132;2023-03-24T05:10:09;10.30;86.20
48579;DHT22;34357;51.948;6.132;2023-03-24T05:12:42;10.30;85.80
48579;DHT22;34357;51.948;6.132;2023-03-24T05:15:11;10.30;85.50
48579;DHT22;34357;51.948;6.132;2023-03-24T05:17:40;10.20;85.80
48579;DHT22;34357;51.948;6.132;2023-03-24T05:20:07;10.10;85.50
48579;DHT22;34357;51.948;6.132;2023-03-24T05:22:37;10.00;85.50
48579;DHT22;34357;51.948;6.132;2023-03-24T05:25:04;10.00;85.60
48579;DHT22;34357;51.948;6.132;2023-03-24T05:27:31;9.90;86.00
48579;DHT22;34357;51.948;6.132;2023-03-24T05:30:02;9.90;85.90
48579;DHT22;34357;51.948;6.132;2023-03-24T05:32:32;9.90;86.00
48579;DHT22;34357;51.948;6.132;2023-03-24T05:34:58;9.90;86.30
48579;DHT22;34357;51.948;6.132;2023-03-24T05:37:29;9.90;86.20
48579;DHT22;34357;51.948;6.132;2023-03-24T05:39:55;9.80;86.40
48579;DHT22;34357;51.948;6.132;2023-03-24T05:42:41;9.70;86.70
48579;DHT22;34357;51.948;6.132;2023-03-24T05:45:10;9.70;86.90
48579;DHT22;34357;51.948;6.132;2023-03-24T05:47:36;9.70;86.60
48579;DHT22;34357;51.948;6.132;2023-03-24T05:50:03;9.70;86.80
48579;DHT22;34357;51.948;6.132;2023-03-24T05:52:30;9.80;86.40
48579;DHT22;34357;51.948;6.132;2023-03-24T05:55:09;9.80;86.60
48579;DHT22;34357;51.948;6.132;2023-03-24T05:57:36;9.80;86.50
48579;DHT22;34357;51.948;6.132;2023-03-24T06:00:13;9.80;86.40
48579;DHT22;34357;51.948;6.132;2023-03-24T06:02:48;9.80;86.40
48579;DHT22;34357;51.948;6.132;2023-03-24T06:05:24;9.80;86.20
48579;DHT22;34357;51.948;6.132;2023-03-24T06:07:50;9.90;85.90
48579;DHT22;34357;51.948;6.132;2023-03-24T06:10:16;10.00;85.70
48579;DHT22;34357;51.948;6.132;2023-03-24T06:12:48;10.20;85.50
48579;DHT22;34357;51.948;6.132;2023-03-24T06:15:14;10.20;85.10
48579;DHT22;34357;51.948;6.132;2023-03-24T06:17:43;10.20;84.70
48579;DHT22;34357;51.948;6.132;2023-03-24T06:20:22;10.20;84.70
48579;DHT22;34357;51.948;6.132;2023-03-24T06:22:59;10.30;84.40
48579;DHT22;34357;51.948;6.132;2023-03-24T06:25:30;10.40;84.10
48579;DHT22;34357;51.948;6.132;2023-03-24T06:28:21;10.30;84.00
48579;DHT22;34357;51.948;6.132;2023-03-24T06:30:50;10.40;83.80
48579;DHT22;34357;51.948;6.132;2023-03-24T06:33:23;10.40;83.40
48579;DHT22;34357;51.948;6.132;2023-03-24T06:35:52;10.50;83.70
48579;DHT22;34357;51.948;6.132;2023-03-24T06:38:18;10.50;83.10
48579;DHT22;34357;51.948;6.132;2023-03-24T06:40:44;10.60;82.60
48579;DHT22;34357;51.948;6.132;2023-03-24T06:43:10;10.90;82.50
48579;DHT22;34357;51.948;6.132;2023-03-24T06:45:38;11.10;81.70
48579;DHT22;34357;51.948;6.132;2023-03-24T06:48:05;11.00;81.70
48579;DHT22;34357;51.948;6.132;2023-03-24T06:50:32;10.80;82.10
48579;DHT22;34357;51.948;6.132;2023-03-24T06:53:04;10.70;82.10
48579;DHT22;34357;51.948;6.132;2023-03-24T06:55:32;10.70;82.30
48579;DHT22;34357;51.948;6.132;2023-03-24T06:57:58;10.70;82.60
48579;DHT22;34357;51.948;6.132;2023-03-24T07:00:32;10.70;83.00
48579;DHT22;34357;51.948;6.132;2023-03-24T07:03:16;10.70;82.60
48579;DHT22;34357;51.948;6.132;2023-03-24T07:05:55;10.70;82.70
48579;DHT22;34357;51.948;6.132;2023-03-24T07:08:21;10.70;82.70
48579;DHT22;34357;51.948;6.132;2023-03-24T07:10:53;10.80;82.70
48579;DHT22;34357;51.948;6.132;2023-03-24T07:13:18;10.80;81.80
48579;DHT22;34357;51.948;6.132;2023-03-24T07:15:44;10.90;81.30
48579;DHT22;34357;51.948;6.132;2023-03-24T07:18:10;10.90;82.00
48579;DHT22;34357;51.948;6.132;2023-03-24T07:20:43;11.00;81.30
48579;DHT22;34357;51.948;6.132;2023-03-24T07:23:14;11.20;81.10
48579;DHT22;34357;51.948;6.132;2023-03-24T07:25:58;11.20;81.00
48579;DHT22;34357;51.948;6.132;2023-03-24T07:28:49;11.20;80.50
48579;DHT22;34357;51.948;6.132;2023-03-24T07:31:30;11.10;80.40
48579;DHT22;34357;51.948;6.132;2023-03-24T07:34:05;11.20;80.70
48579;DHT22;34357;51.948;6.132;2023-03-24T07:36:33;11.30;80.70
48579;DHT22;34357;51.948;6.132;2023-03-24T07:38:59;11.30;80.50
48579;DHT22;34357;51.948;6.132;2023-03-24T07:41:31;11.40;79.30
48579;DHT22;34357;51.948;6.132;2023-03-24T07:44:01;11.70;79.70
48579;DHT22;34357;51.948;6.132;2023-03-24T07:46:38;11.70;78.90
48579;DHT22;34357;51.948;6.132;2023-03-24T07:49:05;11.60;79.00
48579;DHT22;34357;51.948;6.132;2023-03-24T07:51:31;11.40;78.30
48579;DHT22;34357;51.948;6.132;2023-03-24T07:54:17;11.60;78.70
48579;DHT22;34357;51.948;6.132;2023-03-24T07:56:46;11.60;78.90
48579;DHT22;34357;51.948;6.132;2023-03-24T07:59:12;11.60;79.40
48579;DHT22;34357;51.948;6.132;2023-03-24T08:02:00;11.80;79.10
48579;DHT22;34357;51.948;6.132;2023-03-24T08:04:50;11.90;79.20
48579;DHT22;34357;51.948;6.132;2023-03-24T08:07:37;12.10;78.00
48579;DHT22;34357;51.948;6.132;2023-03-24T08:10:03;12.10;77.50
48579;DHT22;34357;51.948;6.132;2023-03-24T08:12:29;12.20;78.10
48579;DHT22;34357;51.948;6.132;2023-03-24T08:14:55;12.20;77.60
48579;DHT22;34357;51.948;6.132;2023-03-24T08:17:21;12.20;77.80
48579;DHT22;34357;51.948;6.132;2023-03-24T08:19:46;12.20;78.00
48579;DHT22;34357;51.948;6.132;2023-03-24T08:22:13;12.10;78.10
48579;DHT22;34357;51.948;6.132;2023-03-24T08:24:40;12.00;78.10
48579;DHT22;34357;51.948;6.132;2023-03-24T08:27:06;11.90;78.20
48579;DHT22;34357;51.948;6.132;2023-03-24T08:29:35;11.90;77.60
48579;DHT22;34357;51.948;6.132;2023-03-24T08:32:01;11.90;78.30
48579;DHT22;34357;51.948;6.132;2023-03-24T08:34:27;11.80;78.00
48579;DHT22;34357;51.948;6.132;2023-03-24T08:36:52;12.10;77.70
48579;DHT22;34357;51.948;6.132;2023-03-24T08:39:19;12.10;77.00
48579;DHT22;34357;51.948;6.132;2023-03-24T08:41:45;12.20;76.40
48579;DHT22;34357;51.948;6.132;2023-03-24T08:44:11;12.40;76.40
48579;DHT22;34357;51.948;6.132;2023-03-24T08:46:38;12.50;75.90
48579;DHT22;34357;51.948;6.132;2023-03-24T08:49:04;12.50;75.00
48579;DHT22;34357;51.948;6.132;2023-03-24T08:51:31;12.70;75.10
48579;DHT22;34357;51.948;6.132;2023-03-24T08:53:57;12.70;75.10
48579;DHT22;34357;51.948;6.132;2023-03-24T08:56:23;12.60;75.40
48579;DHT22;34357;51.948;6.132;2023-03-24T08:58:50;12.60;75.50
48579;DHT22;34357;51.948;6.132;2023-03-24T09:01:21;12.50;75.20
48579;DHT22;34357;51.948;6.132;2023-03-24T09:03:50;12.50;75.50
48579;DHT22;34357;51.948;6.132;2023-03-24T09:06:16;12.70;74.60
48579;DHT22;34357;51.948;6.132;2023-03-24T09:08:42;12.50;75.60
48579;DHT22;34357;51.948;6.132;2023-03-24T09:11:14;12.60;75.20
48579;DHT22;34357;51.948;6.132;2023-03-24T09:13:41;12.40;74.70
48579;DHT22;34357;51.948;6.132;2023-03-24T09:16:07;12.60;74.70
48579;DHT22;34357;51.948;6.132;2023-03-24T09:18:33;12.90;71.90
48579;DHT22;34357;51.948;6.132;2023-03-24T09:21:00;13.30;72.60
48579;DHT22;34357;51.948;6.132;2023-03-24T09:23:25;13.90;70.10
48579;DHT22;34357;51.948;6.132;2023-03-24T09:25:54;14.10;68.00
48579;DHT22;34357;51.948;6.132;2023-03-24T09:28:20;14.10;67.90
48579;DHT22;34357;51.948;6.132;2023-03-24T09:30:46;13.80;68.70
48579;DHT22;34357;51.948;6.132;2023-03-24T09:33:12;13.60;69.50
48579;DHT22;34357;51.948;6.132;2023-03-24T09:35:39;13.50;69.80
48579;DHT22;34357;51.948;6.132;2023-03-24T09:38:04;13.50;69.60
48579;DHT22;34357;51.948;6.132;2023-03-24T09:40:34;13.30;71.00
48579;DHT22;34357;51.948;6.132;2023-03-24T09:43:48;13.20;70.40
48579;DHT22;34357;51.948;6.132;2023-03-24T09:45:51;13.40;70.70
48579;DHT22;34357;51.948;6.132;2023-03-24T09:51:41;13.10;70.00
48579;DHT22;34357;51.948;6.132;2023-03-24T09:56:18;12.80;71.80
48579;DHT22;34357;51.948;6.132;2023-03-24T09:58:48;12.80;72.60
48579;DHT22;34357;51.948;6.132;2023-03-24T10:01:17;12.80;72.90
48579;DHT22;34357;51.948;6.132;2023-03-24T10:03:44;13.00;72.10
48579;DHT22;34357;51.948;6.132;2023-03-24T10:06:18;13.20;72.30
48579;DHT22;34357;51.948;6.132;2023-03-24T10:08:53;13.40;69.90
48579;DHT22;34357;51.948;6.132;2023-03-24T10:17:24;13.20;70.70
48579;DHT22;34357;51.948;6.132;2023-03-24T10:28:52;13.30;71.40
48579;DHT22;34357;51.948;6.132;2023-03-24T10:31:29;13.70;71.40
48579;DHT22;34357;51.948;6.132;2023-03-24T10:33:56;13.80;70.70
48579;DHT22;34357;51.948;6.132;2023-03-24T10:36:22;13.80;69.90
48579;DHT22;34357;51.948;6.132;2023-03-24T10:38:49;14.20;68.70
48579;DHT22;34357;51.948;6.132;2023-03-24T10:41:24;14.10;67.10
48579;DHT22;34357;51.948;6.132;2023-03-24T10:43:51;13.90;67.30
48579;DHT22;34357;51.948;6.132;2023-03-24T10:46:20;13.90;67.80
48579;DHT22;34357;51.948;6.132;2023-03-24T10:48:48;13.90;67.90
48579;DHT22;34357;51.948;6.132;2023-03-24T10:51:17;14.10;66.90
48579;DHT22;34357;51.948;6.132;2023-03-24T10:53:45;14.20;67.00
48579;DHT22;34357;51.948;6.132;2023-03-24T10:56:18;14.00;66.70
48579;DHT22;34357;51.948;6.132;2023-03-24T10:59:01;14.10;65.90
48579;DHT22;34357;51.948;6.132;2023-03-24T11:01:28;14.40;66.40
48579;DHT22;34357;51.948;6.132;2023-03-24T11:04:04;14.40;64.10
48579;DHT22;34357;51.948;6.132;2023-03-24T11:06:32;14.40;64.60
48579;DHT22;34357;51.948;6.132;2023-03-24T11:09:19;14.40;65.80
48579;DHT22;34357;51.948;6.132;2023-03-24T11:11:46;14.10;65.40
48579;DHT22;34357;51.948;6.132;2023-03-24T11:16:50;13.40;71.40
48579;DHT22;34357;51.948;6.132;2023-03-24T11:19:19;13.20;73.10
48579;DHT22;34357;51.948;6.132;2023-03-24T11:21:46;12.80;75.50
48579;DHT22;34357;51.948;6.132;2023-03-24T11:24:14;13.00;77.40
48579;DHT22;34357;51.948;6.132;2023-03-24T11:26:57;13.40;76.00
48579;DHT22;34357;51.948;6.132;2023-03-24T11:29:25;13.50;74.70
48579;DHT22;34357;51.948;6.132;2023-03-24T11:31:55;13.30;72.90
48579;DHT22;34357;51.948;6.132;2023-03-24T11:34:33;13.30;74.50
48579;DHT22;34357;51.948;6.132;2023-03-24T11:39:30;13.70;73.10
48579;DHT22;34357;51.948;6.132;2023-03-24T11:44:43;14.00;70.10
48579;DHT22;34357;51.948;6.132;2023-03-24T11:47:33;13.80;70.40
48579;DHT22;34357;51.948;6.132;2023-03-24T11:55:14;12.20;74.30
48579;DHT22;34357;51.948;6.132;2023-03-24T11:57:46;12.30;76.30
48579;DHT22;34357;51.948;6.132;2023-03-24T12:00:23;12.40;77.80
48579;DHT22;34357;51.948;6.132;2023-03-24T12:05:49;12.20;77.60
48579;DHT22;34357;51.948;6.132;2023-03-24T12:10:54;12.20;78.40
48579;DHT22;34357;51.948;6.132;2023-03-24T12:13:41;12.00;78.30
48579;DHT22;34357;51.948;6.132;2023-03-24T12:26:59;10.90;84.80
48579;DHT22;34357;51.948;6.132;2023-03-24T12:32:27;10.80;87.40
48579;DHT22;34357;51.948;6.132;2023-03-24T12:43:41;10.80;89.10
48579;DHT22;34357;51.948;6.132;2023-03-24T12:46:17;10.80;89.40
48579;DHT22;34357;51.948;6.132;2023-03-24T12:57:10;9.90;87.40
48579;DHT22;34357;51.948;6.132;2023-03-24T12:59:43;9.90;87.60
48579;DHT22;34357;51.948;6.132;2023-03-24T13:02:33;10.00;87.60
48579;DHT22;34357;51.948;6.132;2023-03-24T13:05:07;10.60;88.70
48579;DHT22;34357;51.948;6.132;2023-03-24T13:07:35;10.90;88.10
48579;DHT22;34357;51.948;6.132;2023-03-24T13:10:20;11.30;88.30
48579;DHT22;34357;51.948;6.132;2023-03-24T13:12:55;11.50;87.20
48579;DHT22;34357;51.948;6.132;2023-03-24T13:15:42;11.40;86.60
48579;DHT22;34357;51.948;6.132;2023-03-24T13:18:22;11.50;87.00
48579;DHT22;34357;51.948;6.132;2023-03-24T13:21:16;11.90;87.30
48579;DHT22;34357;51.948;6.132;2023-03-24T13:23:55;12.20;87.60
48579;DHT22;34357;51.948;6.132;2023-03-24T13:31:48;12.60;85.80
48579;DHT22;34357;51.948;6.132;2023-03-24T13:34:35;12.90;86.60
48579;DHT22;34357;51.948;6.132;2023-03-24T13:37:05;13.10;84.90
48579;DHT22;34357;51.948;6.132;2023-03-24T13:39:33;13.10;83.10
48579;DHT22;34357;51.948;6.132;2023-03-24T13:42:01;13.00;82.30
48579;DHT22;34357;51.948;6.132;2023-03-24T13:44:35;13.00;81.50
48579;DHT22;34357;51.948;6.132;2023-03-24T13:47:12;12.70;81.80
48579;DHT22;34357;51.948;6.132;2023-03-24T13:49:41;12.50;81.40
48579;DHT22;34357;51.948;6.132;2023-03-24T13:54:57;12.50;80.90
48579;DHT22;34357;51.948;6.132;2023-03-24T13:57:24;12.40;78.10
48579;DHT22;34357;51.948;6.132;2023-03-24T14:03:11;11.90;79.80
48579;DHT22;34357;51.948;6.132;2023-03-24T14:05:58;11.70;80.10
48579;DHT22;34357;51.948;6.132;2023-03-24T14:19:21;9.50;87.80
48579;DHT22;34357;51.948;6.132;2023-03-24T14:21:52;9.40;88.30
48579;DHT22;34357;51.948;6.132;2023-03-24T14:24:27;9.30;88.40
48579;DHT22;34357;51.948;6.132;2023-03-24T14:26:54;9.60;89.30
48579;DHT22;34357;51.948;6.132;2023-03-24T14:29:46;9.60;88.40
48579;DHT22;34357;51.948;6.132;2023-03-24T14:32:18;9.70;87.80
48579;DHT22;34357;51.948;6.132;2023-03-24T14:34:55;9.80;88.00
48579;DHT22;34357;51.948;6.132;2023-03-24T14:37:25;9.90;87.80
48579;DHT22;34357;51.948;6.132;2023-03-24T14:39:52;10.00;88.00
48579;DHT22;34357;51.948;6.132;2023-03-24T14:44:57;10.20;88.30
48579;DHT22;34357;51.948;6.132;2023-03-24T14:47:31;10.30;88.30
48579;DHT22;34357;51.948;6.132;2023-03-24T14:50:00;10.20;88.30
48579;DHT22;34357;51.948;6.132;2023-03-24T14:52:27;10.20;88.60
48579;DHT22;34357;51.948;6.132;2023-03-24T14:55:09;10.20;88.20
48579;DHT22;34357;51.948;6.132;2023-03-24T14:58:09;10.20;87.80
48579;DHT22;34357;51.948;6.132;2023-03-24T15:00:48;10.50;88.70
48579;DHT22;34357;51.948;6.132;2023-03-24T15:06:19;11.10;88.10
48579;DHT22;34357;51.948;6.132;2023-03-24T15:08:57;11.30;88.00
48579;DHT22;34357;51.948;6.132;2023-03-24T15:11:31;11.30;85.50
48579;DHT22;34357;51.948;6.132;2023-03-24T15:13:59;11.20;86.30
48579;DHT22;34357;51.948;6.132;2023-03-24T15:16:30;11.20;86.10
48579;DHT22;34357;51.948;6.132;2023-03-24T15:19:06;11.40;87.30
48579;DHT22;34357;51.948;6.132;2023-03-24T15:21:38;11.30;86.10
48579;DHT22;34357;51.948;6.132;2023-03-24T15:26:45;11.30;85.20
48579;DHT22;34357;51.948;6.132;2023-03-24T15:29:11;11.40;85.90
48579;DHT22;34357;51.948;6.132;2023-03-24T15:31:37;11.30;84.80
48579;DHT22;34357;51.948;6.132;2023-03-24T15:36:56;11.40;85.70
48579;DHT22;34357;51.948;6.132;2023-03-24T15:39:38;11.50;86.10
48579;DHT22;34357;51.948;6.132;2023-03-24T15:42:14;11.50;85.20
48579;DHT22;34357;51.948;6.132;2023-03-24T15:44:42;11.40;84.00
48579;DHT22;34357;51.948;6.132;2023-03-24T15:47:21;11.30;84.30
48579;DHT22;34357;51.948;6.132;2023-03-24T15:49:55;11.30;83.90
48579;DHT22;34357;51.948;6.132;2023-03-24T15:52:33;11.30;84.40
48579;DHT22;34357;51.948;6.132;2023-03-24T15:55:23;11.40;85.50
48579;DHT22;34357;51.948;6.132;2023-03-24T15:57:51;11.40;85.50
48579;DHT22;34357;51.948;6.132;2023-03-24T16:00:23;11.40;84.50
48579;DHT22;34357;51.948;6.132;2023-03-24T16:02:54;11.40;84.70
48579;DHT22;34357;51.948;6.132;2023-03-24T16:05:26;11.40;84.90
48579;DHT22;34357;51.948;6.132;2023-03-24T16:08:03;11.40;84.50
48579;DHT22;34357;51.948;6.132;2023-03-24T16:10:54;11.40;83.90
48579;DHT22;34357;51.948;6.132;2023-03-24T16:13:21;11.40;84.50
48579;DHT22;34357;51.948;6.132;2023-03-24T16:21:01;11.40;83.60
48579;DHT22;34357;51.948;6.132;2023-03-24T16:23:29;11.30;84.20
48579;DHT22;34357;51.948;6.132;2023-03-24T16:25:55;11.20;84.10
48579;DHT22;34357;51.948;6.132;2023-03-24T16:28:21;11.20;84.30
48579;DHT22;34357;51.948;6.132;2023-03-24T16:30:59;11.30;84.40
48579;DHT22;34357;51.948;6.132;2023-03-24T16:33:25;11.30;84.00
48579;DHT22;34357;51.948;6.132;2023-03-24T16:35:51;11.50;84.50
48579;DHT22;34357;51.948;6.132;2023-03-24T16:38:17;11.40;84.30
48579;DHT22;34357;51.948;6.132;2023-03-24T16:40:49;11.30;84.70
48579;DHT22;34357;51.948;6.132;2023-03-24T16:43:15;11.10;84.90
48579;DHT22;34357;51.948;6.132;2023-03-24T16:45:47;11.00;85.20
48579;DHT22;34357;51.948;6.132;2023-03-24T16:48:13;10.90;85.40
48579;DHT22;34357;51.948;6.132;2023-03-24T16:50:44;10.90;85.50
48579;DHT22;34357;51.948;6.132;2023-03-24T16:53:11;10.90;85.40
48579;DHT22;34357;51.948;6.132;2023-03-24T16:55:38;10.90;85.90
48579;DHT22;34357;51.948;6.132;2023-03-24T16:58:06;10.90;86.00
48579;DHT22;34357;51.948;6.132;2023-03-24T17:00:33;11.00;85.90
48579;DHT22;34357;51.948;6.132;2023-03-24T17:03:01;11.00;85.80
48579;DHT22;34357;51.948;6.132;2023-03-24T17:05:32;11.00;85.80
48579;DHT22;34357;51.948;6.132;2023-03-24T17:08:00;11.00;85.90
48579;DHT22;34357;51.948;6.132;2023-03-24T17:10:26;11.00;86.00
48579;DHT22;34357;51.948;6.132;2023-03-24T17:12:54;11.00;86.10
48579;DHT22;34357;51.948;6.132;2023-03-24T17:15:26;11.00;85.90
48579;DHT22;34357;51.948;6.132;2023-03-24T17:17:52;10.90;86.30
48579;DHT22;34357;51.948;6.132;2023-03-24T17:20:19;10.90;86.60
48579;DHT22;34357;51.948;6.132;2023-03-24T17:22:46;10.90;86.70
48579;DHT22;34357;51.948;6.132;2023-03-24T17:25:15;10.90;86.80
48579;DHT22;34357;51.948;6.132;2023-03-24T17:27:42;10.90;86.80
48579;DHT22;34357;51.948;6.132;2023-03-24T17:30:14;10.80;87.00
48579;DHT22;34357;51.948;6.132;2023-03-24T17:32:40;10.70;87.10
48579;DHT22;34357;51.948;6.132;2023-03-24T17:35:09;10.70;87.30
48579;DHT22;34357;51.948;6.132;2023-03-24T17:37:36;10.70;87.40
48579;DHT22;34357;51.948;6.132;2023-03-24T17:40:03;10.60;87.70
48579;DHT22;34357;51.948;6.132;2023-03-24T17:42:35;10.60;87.70
48579;DHT22;34357;51.948;6.132;2023-03-24T17:45:01;10.50;87.70
48579;DHT22;34357;51.948;6.132;2023-03-24T17:47:27;10.50;87.60
48579;DHT22;34357;51.948;6.132;2023-03-24T17:49:53;10.60;87.50
48579;DHT22;34357;51.948;6.132;2023-03-24T17:52:20;10.70;87.10
48579;DHT22;34357;51.948;6.132;2023-03-24T17:54:45;10.70;87.20
48579;DHT22;34357;51.948;6.132;2023-03-24T17:57:11;10.70;87.10
48579;DHT22;34357;51.948;6.132;2023-03-24T17:59:37;10.80;86.60
48579;DHT22;34357;51.948;6.132;2023-03-24T18:02:04;10.80;86.60
48579;DHT22;34357;51.948;6.132;2023-03-24T18:04:31;10.90;85.70
48579;DHT22;34357;51.948;6.132;2023-03-24T18:06:56;10.90;85.60
48579;DHT22;34357;51.948;6.132;2023-03-24T18:09:24;10.90;85.60
48579;DHT22;34357;51.948;6.132;2023-03-24T18:11:50;10.90;85.60
48579;DHT22;34357;51.948;6.132;2023-03-24T18:14:15;10.90;85.30
48579;DHT22;34357;51.948;6.132;2023-03-24T18:16:41;11.00;85.20
48579;DHT22;34357;51.948;6.132;2023-03-24T18:19:07;10.90;85.40
48579;DHT22;34357;51.948;6.132;2023-03-24T18:21:33;10.90;85.40
48579;DHT22;34357;51.948;6.132;2023-03-24T18:23:58;10.90;85.00
48579;DHT22;34357;51.948;6.132;2023-03-24T18:26:24;10.90;84.60
48579;DHT22;34357;51.948;6.132;2023-03-24T18:28:51;10.90;84.20
48579;DHT22;34357;51.948;6.132;2023-03-24T18:31:19;10.80;84.00
48579;DHT22;34357;51.948;6.132;2023-03-24T18:33:46;10.80;84.40
48579;DHT22;34357;51.948;6.132;2023-03-24T18:36:13;10.70;84.20
48579;DHT22;34357;51.948;6.132;2023-03-24T18:38:46;10.90;83.50
48579;DHT22;34357;51.948;6.132;2023-03-24T18:41:13;10.90;83.00